createdAt,value
2019-05-20T00:02:23.119Z,31.70
2019-05-20T00:05:01.456Z,30.37
2019-05-20T00:07:47.785Z,34.87
2019-05-20T00:11:17.982Z,35.60
2019-05-20T00:14:08.991Z,36.90
2019-05-20T00:17:02.053Z,34.90
2019-05-20T00:20:00.584Z,31.93
2019-05-20T00:22:35.853Z,29.73
2019-05-20T00:25:24.016Z,32.63
2019-05-20T00:28:16.399Z,32.00
2019-05-20T00:31:05.054Z,26.67
2019-05-20T00:36:27.398Z,28.83
2019-05-20T00:39:42.711Z,29.40
2019-05-20T00:42:26.889Z,25.83
2019-05-20T00:45:05.366Z,28.23
2019-05-20T00:48:03.495Z,25.17
2019-05-20T00:50:46.244Z,27.73
2019-05-20T00:53:31.997Z,28.97
2019-05-20T00:56:23.578Z,31.50
2019-05-20T00:59:10.443Z,26.07
2019-05-20T01:01:51.527Z,28.20
2019-05-20T01:05:07.754Z,26.33
2019-05-20T01:07:56.364Z,28.60
2019-05-20T01:10:49.761Z,30.53
2019-05-20T01:13:31.804Z,30.30
2019-05-20T01:16:22.016Z,27.90
2019-05-20T01:19:08.290Z,31.63
2019-05-20T01:22:00.091Z,31.33
2019-05-20T01:24:43.352Z,30.23
2019-05-20T01:27:29.336Z,30.37
2019-05-20T01:30:17.321Z,28.93
2019-05-20T01:32:55.166Z,29.23
2019-05-20T01:35:46.031Z,35.13
2019-05-20T01:38:25.702Z,32.23
2019-05-20T01:41:10.919Z,27.93
2019-05-20T01:43:55.054Z,24.37
2019-05-20T01:46:58.887Z,25.70
2019-05-20T01:49:39.523Z,24.30
2019-05-20T01:52:20.780Z,25.87
2019-05-20T01:55:15.572Z,27.93
2019-05-20T01:57:59.621Z,28.60
2019-05-20T02:00:41.039Z,31.00
2019-05-20T02:03:31.872Z,31.67
2019-05-20T02:06:01.202Z,29.67
2019-05-20T02:08:52.780Z,31.90
2019-05-20T02:11:44.293Z,32.00
2019-05-20T02:14:33.741Z,35.00
2019-05-20T02:17:13.505Z,36.47
2019-05-20T02:23:23.250Z,38.50
2019-05-20T02:26:08.345Z,44.20
2019-05-20T02:28:57.594Z,42.00
2019-05-20T02:31:38.865Z,46.20
2019-05-20T02:34:18.853Z,53.80
2019-05-20T02:37:13.447Z,47.93
2019-05-20T02:40:08.419Z,42.10
2019-05-20T02:42:49.259Z,43.93
2019-05-20T02:45:39.576Z,46.53
2019-05-20T02:48:35.405Z,45.07
2019-05-20T02:51:46.310Z,46.07
2019-05-20T02:54:42.719Z,43.47
2019-05-20T02:57:25.657Z,41.20
2019-05-20T03:00:14.021Z,39.33
2019-05-20T03:03:02.625Z,41.43
2019-05-20T03:05:49.323Z,41.83
2019-05-20T03:08:28.964Z,42.47
2019-05-20T03:11:22.596Z,44.37
2019-05-20T03:13:57.363Z,41.70
2019-05-20T03:16:46.385Z,45.00
2019-05-20T03:19:31.818Z,40.80
2019-05-20T03:22:28.846Z,35.30
2019-05-20T03:25:35.598Z,43.57
2019-05-20T03:32:09.262Z,43.23
2019-05-20T03:35:16.481Z,46.43
2019-05-20T03:41:10.768Z,35.83
2019-05-20T03:44:15.005Z,37.73
2019-05-20T03:46:49.861Z,37.03
2019-05-20T03:49:40.182Z,33.63
2019-05-20T03:52:30.591Z,33.60
2019-05-20T03:55:15.399Z,28.27
2019-05-20T03:58:24.699Z,29.27
2019-05-20T04:01:16.637Z,32.80
2019-05-20T04:07:09.933Z,28.70
2019-05-20T04:10:15.371Z,26.13
2019-05-20T04:13:26.379Z,26.63
2019-05-20T04:16:45.447Z,27.13
2019-05-20T04:19:44.011Z,25.80
2019-05-20T04:22:43.419Z,40.93
2019-05-20T04:25:36.966Z,25.10
2019-05-20T04:28:15.713Z,20.23
2019-05-20T04:31:03.777Z,23.97
2019-05-20T04:33:42.515Z,20.93
2019-05-20T04:36:43.060Z,21.00
2019-05-20T04:39:36.647Z,21.33
2019-05-20T04:42:16.164Z,19.10
2019-05-20T04:44:59.902Z,20.47
2019-05-20T04:47:57.019Z,20.00
2019-05-20T04:50:41.628Z,19.27
2019-05-20T04:53:21.863Z,25.33
2019-05-20T04:56:29.377Z,20.03
2019-05-20T04:59:22.798Z,20.80
2019-05-20T05:02:30.301Z,21.47
2019-05-20T05:05:50.074Z,20.80
2019-05-20T05:08:46.371Z,20.63
2019-05-20T05:11:39.834Z,22.37
2019-05-20T05:14:34.345Z,21.50
2019-05-20T05:17:12.818Z,23.90
2019-05-20T05:19:56.663Z,22.93
2019-05-20T05:22:54.471Z,24.00
2019-05-20T05:25:51.864Z,28.63
2019-05-20T05:28:35.333Z,23.17
2019-05-20T05:31:37.760Z,23.07
2019-05-20T05:38:00.014Z,22.90
2019-05-20T05:40:51.553Z,21.77
2019-05-20T05:43:40.069Z,22.53
2019-05-20T05:46:33.314Z,21.63
2019-05-20T05:49:18.506Z,23.57
2019-05-20T05:52:14.476Z,20.50
2019-05-20T05:58:10.649Z,19.20
2019-05-20T06:01:21.823Z,21.77
2019-05-20T06:04:06.462Z,18.53
2019-05-20T06:07:16.389Z,18.43
2019-05-20T06:10:08.733Z,18.00
2019-05-20T06:13:02.782Z,20.07
2019-05-20T06:15:58.545Z,18.10
2019-05-20T06:18:59.754Z,18.23
2019-05-20T06:21:54.691Z,18.53
2019-05-20T06:24:36.068Z,18.53
2019-05-20T06:27:39.742Z,19.23
2019-05-20T06:30:22.778Z,17.10
2019-05-20T06:33:23.416Z,18.07
2019-05-20T06:36:39.275Z,17.70
2019-05-20T06:39:40.408Z,16.23
2019-05-20T06:42:53.218Z,17.50
2019-05-20T06:45:42.047Z,15.20
2019-05-20T06:48:43.347Z,13.60
2019-05-20T06:51:24.652Z,17.27
2019-05-20T06:54:30.296Z,18.70
2019-05-20T06:57:33.074Z,16.70
2019-05-20T07:00:19.492Z,15.57
2019-05-20T07:03:06.802Z,17.33
2019-05-20T07:06:19.640Z,14.73
2019-05-20T07:12:40.091Z,15.17
2019-05-20T07:15:22.876Z,15.73
2019-05-20T07:18:07.410Z,15.20
2019-05-20T07:20:58.990Z,15.30
2019-05-20T07:24:36.787Z,15.30
2019-05-20T07:29:51.163Z,14.17
2019-05-20T07:32:38.827Z,16.90
2019-05-20T07:35:29.475Z,15.30
2019-05-20T07:38:12.434Z,17.27
2019-05-20T07:41:19.200Z,14.40
2019-05-20T07:44:09.023Z,15.93
2019-05-20T07:46:59.822Z,14.33
2019-05-20T07:50:22.715Z,12.90
2019-05-20T07:53:12.043Z,13.20
2019-05-20T07:56:07.465Z,15.20
2019-05-20T07:59:10.325Z,13.47
2019-05-20T08:02:06.597Z,16.33
2019-05-20T08:05:14.134Z,17.33
2019-05-20T08:07:52.551Z,13.47
2019-05-20T08:10:31.922Z,13.50
2019-05-20T08:16:53.484Z,14.83
2019-05-20T08:19:31.842Z,18.00
2019-05-20T08:22:17.439Z,13.83
2019-05-20T08:31:29.232Z,17.63
2019-05-20T08:34:30.084Z,14.73
2019-05-20T08:37:44.830Z,14.97
2019-05-20T08:43:35.364Z,15.73
2019-05-20T08:46:17.210Z,13.80
2019-05-20T08:49:24.796Z,12.47
2019-05-20T08:52:17.759Z,12.70
2019-05-20T08:55:12.056Z,14.17
2019-05-20T08:57:54.976Z,16.10
2019-05-20T09:00:46.979Z,13.10
2019-05-20T09:03:36.514Z,11.90
2019-05-20T09:06:31.526Z,13.43
2019-05-20T09:09:16.007Z,14.97
2019-05-20T09:12:12.439Z,15.93
2019-05-20T09:14:55.951Z,16.17
2019-05-20T09:17:46.635Z,15.73
2019-05-20T09:20:46.432Z,13.97
2019-05-20T09:23:32.290Z,15.30
2019-05-20T09:26:20.875Z,13.23
2019-05-20T09:29:11.072Z,14.40
2019-05-20T09:32:04.711Z,13.20
2019-05-20T09:34:59.645Z,14.23
2019-05-20T09:38:24.307Z,13.07
2019-05-20T09:41:40.757Z,10.67
2019-05-20T09:44:33.852Z,11.50
2019-05-20T09:47:37.255Z,11.93
2019-05-20T09:53:58.538Z,12.85
2019-05-20T09:56:57.860Z,9.50
2019-05-20T10:00:14.143Z,11.80
2019-05-20T10:03:11.295Z,12.40
2019-05-20T10:06:14.558Z,12.17
2019-05-20T10:09:07.302Z,12.20
2019-05-20T10:11:52.689Z,12.40
2019-05-20T10:14:37.032Z,12.87
2019-05-20T10:17:46.514Z,14.23
2019-05-20T10:20:27.829Z,12.80
2019-05-20T10:23:41.349Z,11.27
2019-05-20T10:26:47.469Z,13.37
2019-05-20T10:29:44.663Z,12.73
2019-05-20T10:32:44.611Z,11.47
2019-05-20T10:35:26.831Z,9.53
2019-05-20T10:44:44.130Z,7.93
2019-05-20T10:47:49.173Z,11.65
2019-05-20T10:51:38.714Z,12.30
2019-05-20T10:53:47.759Z,12.30
2019-05-20T10:56:51.376Z,10.23
2019-05-20T10:59:31.961Z,7.47
2019-05-20T11:02:30.986Z,11.40
2019-05-20T11:05:12.170Z,9.20
2019-05-20T11:08:02.725Z,10.33
2019-05-20T11:10:58.578Z,8.77
2019-05-20T11:14:02.107Z,11.00
2019-05-20T11:16:39.297Z,10.07
2019-05-20T11:22:34.550Z,10.75
2019-05-20T11:25:21.495Z,8.50
2019-05-20T11:31:00.099Z,7.73
2019-05-20T11:33:29.703Z,8.90
2019-05-20T11:35:59.498Z,9.38
2019-05-20T11:38:29.582Z,12.23
2019-05-20T11:40:59.347Z,8.15
2019-05-20T11:43:29.146Z,8.80
2019-05-20T11:45:59.027Z,13.37
2019-05-20T11:48:28.879Z,11.15
2019-05-20T11:50:58.777Z,11.65
2019-05-20T11:53:28.729Z,10.60
2019-05-20T11:55:58.608Z,13.27
2019-05-20T11:58:28.441Z,9.90
2019-05-20T12:00:58.670Z,13.20
2019-05-20T12:03:28.554Z,8.13
2019-05-20T12:05:58.230Z,6.97
2019-05-20T12:08:28.135Z,11.80
2019-05-20T12:10:57.952Z,8.45
2019-05-20T12:13:27.832Z,10.50
2019-05-20T12:15:57.746Z,9.75
2019-05-20T12:18:27.684Z,8.50
2019-05-20T12:20:57.568Z,16.40
2019-05-20T12:23:27.285Z,6.62
2019-05-20T12:25:56.959Z,9.40
2019-05-20T12:28:27.033Z,8.48
2019-05-20T12:30:56.828Z,9.68
2019-05-20T12:33:26.609Z,10.93
2019-05-20T12:35:56.289Z,13.05
2019-05-20T12:38:25.984Z,12.60
2019-05-20T12:40:55.945Z,12.63
2019-05-20T12:43:25.796Z,9.90
2019-05-20T12:45:55.419Z,8.53
2019-05-20T12:48:25.412Z,9.97
2019-05-20T12:50:55.260Z,9.80
2019-05-20T12:53:25.069Z,6.40
2019-05-20T12:55:55.033Z,12.23
2019-05-20T12:58:25.032Z,13.15
2019-05-20T13:00:54.736Z,7.95
2019-05-20T13:03:25.908Z,12.65
2019-05-20T13:05:55.676Z,12.45
2019-05-20T13:08:25.489Z,11.43
2019-05-20T13:10:56.565Z,10.85
2019-05-20T13:13:26.446Z,25.08
2019-05-20T13:15:56.355Z,14.60
2019-05-20T13:18:26.412Z,16.17
2019-05-20T13:20:56.273Z,27.70
2019-05-20T13:23:26.116Z,12.10
2019-05-20T13:25:55.986Z,15.13
2019-05-20T13:28:26.015Z,11.57
2019-05-20T13:30:55.989Z,15.88
2019-05-20T13:33:25.803Z,14.23
2019-05-20T13:35:56.982Z,25.72
2019-05-20T13:38:26.850Z,15.15
2019-05-20T13:40:56.765Z,21.17
2019-05-20T13:43:26.644Z,9.63
2019-05-20T13:45:56.517Z,14.47
2019-05-20T13:48:26.330Z,12.98
2019-05-20T13:50:56.680Z,9.70
2019-05-20T13:53:26.582Z,12.88
2019-05-20T13:55:56.371Z,11.73
2019-05-20T13:58:25.926Z,8.35
2019-05-20T14:00:55.713Z,10.35
2019-05-20T14:03:25.498Z,13.03
2019-05-20T14:05:55.490Z,11.12
2019-05-20T14:08:25.230Z,11.30
2019-05-20T14:11:04.462Z,8.43
2019-05-20T14:13:26.549Z,11.60
2019-05-20T14:15:56.315Z,12.25
2019-05-20T14:18:26.150Z,9.68
2019-05-20T14:20:57.323Z,12.90
2019-05-20T14:23:27.195Z,15.93
2019-05-20T14:25:57.052Z,21.27
2019-05-20T14:28:26.871Z,7.25
2019-05-20T14:30:56.768Z,7.78
2019-05-20T14:33:26.717Z,9.68
2019-05-20T14:35:56.574Z,11.38
2019-05-20T14:38:26.590Z,7.45
2019-05-20T14:40:56.466Z,6.50
2019-05-20T14:43:26.329Z,9.35
2019-05-20T14:45:56.006Z,9.90
2019-05-20T14:48:25.789Z,9.58
2019-05-20T14:50:55.799Z,10.15
2019-05-20T14:53:25.597Z,7.75
2019-05-20T14:55:55.539Z,8.60
2019-05-20T14:58:25.420Z,7.70
2019-05-20T15:00:55.331Z,7.10
2019-05-20T15:03:25.238Z,10.80
2019-05-20T15:05:54.890Z,6.15
2019-05-20T15:08:24.960Z,7.00
2019-05-20T15:10:54.947Z,9.90
2019-05-20T15:13:24.817Z,8.58
2019-05-20T15:15:54.627Z,8.55
2019-05-20T15:18:24.713Z,7.90
2019-05-20T15:20:54.281Z,8.40
2019-05-20T15:23:24.116Z,13.25
2019-05-20T15:25:55.346Z,7.12
2019-05-20T15:28:25.264Z,9.08
2019-05-20T15:30:55.431Z,8.60
2019-05-20T15:33:25.301Z,8.78
2019-05-20T15:35:55.275Z,13.18
2019-05-20T15:38:25.144Z,16.52
2019-05-20T15:40:55.062Z,11.35
2019-05-20T15:43:24.996Z,18.05
2019-05-20T15:45:54.885Z,12.82
2019-05-20T15:48:25.652Z,14.78
2019-05-20T15:50:55.422Z,10.00
2019-05-20T15:53:25.359Z,17.15
2019-05-20T15:55:55.200Z,23.25
2019-05-20T15:58:25.086Z,13.30
2019-05-20T16:00:54.871Z,16.48
2019-05-20T16:03:24.765Z,10.75
2019-05-20T16:05:54.629Z,11.47
2019-05-20T16:08:24.749Z,8.40
2019-05-20T16:10:54.614Z,11.83
2019-05-20T16:13:24.358Z,15.10
2019-05-20T16:15:54.231Z,59.70
2019-05-20T16:18:24.015Z,18.43
2019-05-20T16:20:53.933Z,24.55
2019-05-20T16:23:24.110Z,24.50
2019-05-20T16:25:54.075Z,57.88
2019-05-20T16:28:23.859Z,35.10
2019-05-20T16:30:53.638Z,18.57
2019-05-20T16:33:23.312Z,123.07
2019-05-20T16:35:52.996Z,7.87
2019-05-20T16:38:22.934Z,11.78
2019-05-20T16:40:52.840Z,15.53
2019-05-20T16:43:22.650Z,7.20
2019-05-20T16:45:52.410Z,13.28
2019-05-20T16:48:22.300Z,11.70
2019-05-20T16:50:52.120Z,13.58
2019-05-20T16:53:21.862Z,59.55
2019-05-20T16:55:52.867Z,17.20
2019-05-20T16:58:22.846Z,9.20
2019-05-20T17:00:52.704Z,7.70
2019-05-20T17:03:22.524Z,10.30
2019-05-20T17:05:52.491Z,11.13
2019-05-20T17:08:22.329Z,15.73
2019-05-20T17:10:52.348Z,15.97
2019-05-20T17:13:22.218Z,13.80
2019-05-20T17:15:52.024Z,13.47
2019-05-20T17:18:21.823Z,6.77
2019-05-20T17:20:51.928Z,9.37
2019-05-20T17:23:21.745Z,10.23
2019-05-20T17:25:51.719Z,8.73
2019-05-20T17:28:21.579Z,10.13
2019-05-20T17:30:51.504Z,7.10
2019-05-20T17:33:21.494Z,7.23
2019-05-20T17:35:51.368Z,11.20
2019-05-20T17:38:21.169Z,14.40
2019-05-20T17:40:51.097Z,6.97
2019-05-20T17:43:20.985Z,16.50
2019-05-20T17:45:50.898Z,13.60
2019-05-20T17:48:21.958Z,16.20
2019-05-20T17:50:52.196Z,9.47
2019-05-20T17:53:21.887Z,10.70
2019-05-20T17:55:52.052Z,9.30
2019-05-20T17:58:21.913Z,7.13
2019-05-20T18:00:51.856Z,7.50
2019-05-20T18:03:22.012Z,10.77
2019-05-20T18:05:51.752Z,7.10
2019-05-20T18:08:24.576Z,11.30
2019-05-20T18:10:54.572Z,6.70
2019-05-20T18:13:24.384Z,10.80
2019-05-20T18:15:54.311Z,6.47
2019-05-20T18:18:25.178Z,8.20
2019-05-20T18:20:56.585Z,7.87
2019-05-20T18:23:26.739Z,10.93
2019-05-20T18:25:57.786Z,7.37
2019-05-20T18:28:27.687Z,6.73
2019-05-20T18:30:57.661Z,12.67
2019-05-20T18:33:27.421Z,8.17
2019-05-20T18:35:57.223Z,16.67
2019-05-20T18:38:27.030Z,11.70
2019-05-20T18:40:56.744Z,13.27
2019-05-20T18:43:26.612Z,7.63
2019-05-20T18:45:56.480Z,12.47
2019-05-20T18:48:26.499Z,8.00
2019-05-20T18:50:57.570Z,6.30
2019-05-20T18:53:27.356Z,10.70
2019-05-20T18:55:57.221Z,11.67
2019-05-20T18:58:28.023Z,18.80
2019-05-20T19:00:57.762Z,12.17
2019-05-20T19:03:28.478Z,11.30
2019-05-20T19:05:58.687Z,13.13
2019-05-20T19:08:28.532Z,11.53
2019-05-20T19:10:58.733Z,11.20
2019-05-20T19:13:28.535Z,11.33
2019-05-20T19:15:58.401Z,9.53
2019-05-20T19:18:28.261Z,7.23
2019-05-20T19:20:58.181Z,8.73
2019-05-20T19:23:29.135Z,17.60
2019-05-20T19:25:59.043Z,7.30
2019-05-20T19:28:29.074Z,8.17
2019-05-20T19:30:58.974Z,13.63
2019-05-20T19:33:28.776Z,9.23
2019-05-20T19:35:58.643Z,7.83
2019-05-20T19:38:32.839Z,11.07
2019-05-20T19:40:59.863Z,6.50
2019-05-20T19:43:29.756Z,10.60
2019-05-20T19:45:59.597Z,10.43
2019-05-20T19:48:29.355Z,12.63
2019-05-20T19:50:59.266Z,7.00
2019-05-20T19:53:29.038Z,9.27
2019-05-20T19:55:58.879Z,6.93
2019-05-20T19:58:28.825Z,7.10
2019-05-20T20:00:58.695Z,5.53
2019-05-20T20:03:28.627Z,12.43
2019-05-20T20:05:58.800Z,13.30
2019-05-20T20:08:28.771Z,9.27
2019-05-20T20:10:58.659Z,7.87
2019-05-20T20:13:28.651Z,7.60
2019-05-20T20:15:58.401Z,26.77
2019-05-20T20:18:28.435Z,22.90
2019-05-20T20:20:58.317Z,17.93
2019-05-20T20:23:28.046Z,25.13
2019-05-20T20:25:57.938Z,29.23
2019-05-20T20:28:27.692Z,20.53
2019-05-20T20:30:57.516Z,16.40
2019-05-20T20:33:27.485Z,10.80
2019-05-20T20:35:58.629Z,16.37
2019-05-20T20:38:28.384Z,14.23
2019-05-20T20:40:58.337Z,15.80
2019-05-20T20:43:31.982Z,14.17
2019-05-20T20:46:00.200Z,11.00
2019-05-20T20:48:30.003Z,11.83
2019-05-20T20:50:59.699Z,11.90
2019-05-20T20:53:29.548Z,13.43
2019-05-20T20:55:59.223Z,15.07
2019-05-20T20:58:29.039Z,11.83
2019-05-20T21:00:59.003Z,11.07
2019-05-20T21:03:28.866Z,16.13
2019-05-20T21:05:58.804Z,15.27
2019-05-20T21:08:28.628Z,20.43
2019-05-20T21:10:58.531Z,14.93
2019-05-20T21:13:28.764Z,17.17
2019-05-20T21:15:58.730Z,22.13
2019-05-20T21:18:30.916Z,18.23
2019-05-20T21:21:00.645Z,23.87
2019-05-20T21:23:30.525Z,16.43
2019-05-20T21:26:00.393Z,22.30
2019-05-20T21:28:30.406Z,11.47
2019-05-20T21:31:00.319Z,8.33
2019-05-20T21:33:30.153Z,8.93
2019-05-20T21:36:00.083Z,15.97
2019-05-20T21:38:29.984Z,13.53
2019-05-20T21:40:59.758Z,9.73
2019-05-20T21:43:29.608Z,11.67
2019-05-20T21:45:59.517Z,13.23
2019-05-20T21:48:29.552Z,17.43
2019-05-20T21:50:59.356Z,14.87
2019-05-20T21:53:30.512Z,14.73
2019-05-20T21:56:00.408Z,13.50
2019-05-20T21:58:30.338Z,11.17
2019-05-20T22:01:00.535Z,17.33
2019-05-20T22:03:30.263Z,14.67
2019-05-20T22:06:00.070Z,12.17
2019-05-20T22:08:29.918Z,11.10
2019-05-20T22:10:59.616Z,16.00
2019-05-20T22:13:29.404Z,12.43
2019-05-20T22:15:59.434Z,12.33
2019-05-20T22:18:29.245Z,8.30
2019-05-20T22:21:00.414Z,11.90
2019-05-20T22:23:49.088Z,10.63
2019-05-20T22:26:18.798Z,10.17
2019-05-20T22:28:48.693Z,9.73
2019-05-20T22:31:18.604Z,14.83
2019-05-20T22:33:48.464Z,9.67
2019-05-20T22:36:18.336Z,10.43
2019-05-20T22:38:48.258Z,10.57
2019-05-20T22:41:18.287Z,13.23
2019-05-20T22:43:48.101Z,12.13
2019-05-20T22:46:17.987Z,10.30
2019-05-20T22:48:47.960Z,10.70
2019-05-20T22:51:17.816Z,11.23
2019-05-20T22:53:47.436Z,11.17
2019-05-20T22:56:18.513Z,8.07
2019-05-20T22:58:48.204Z,14.30
2019-05-20T23:01:18.096Z,13.87
2019-05-20T23:03:56.375Z,10.47
2019-05-20T23:06:20.287Z,9.10
2019-05-20T23:08:50.132Z,10.67
2019-05-20T23:11:20.093Z,11.73
2019-05-20T23:13:49.940Z,9.60
2019-05-20T23:16:19.860Z,11.37
2019-05-20T23:18:49.844Z,8.47
2019-05-20T23:21:19.750Z,8.03
2019-05-20T23:23:49.665Z,10.97
2019-05-20T23:26:19.577Z,22.03
2019-05-20T23:28:49.449Z,21.83
2019-05-20T23:31:19.387Z,20.17
2019-05-20T23:33:49.222Z,18.63
2019-05-20T23:36:18.882Z,12.20
2019-05-20T23:38:48.781Z,12.20
2019-05-20T23:41:19.008Z,9.13
2019-05-20T23:43:49.440Z,9.70
2019-05-20T23:46:19.340Z,7.20
2019-05-20T23:48:49.308Z,10.37
2019-05-20T23:51:19.340Z,6.53
2019-05-20T23:53:49.161Z,10.80
2019-05-20T23:56:18.968Z,10.67
2019-05-20T23:58:48.853Z,9.93
